Acomita, New Mexico
Current Conditions -  °F | °C
As of 11:17 PM on Monday 20 Oct 2014 (Local Time) from KGNT Reporting Station
Scattered Clouds Scattered Clouds  
Wind Chill: 45°   Ceiling: Unl
Heat Index: 48°   Visibility: 10mi
Dew Point: 43°   Wind: 8mph
Humidity: 82%   Direction: 150°SSE
Pressure: 30.24"   Gusts: NA
Location:  35.0806°N, 107.597°W
Report Text: KGNT 210517Z AUTO 15007KT 10SM SCT110 09/06 A3024 RMK AO2
Loading
Personal Weather Stations






























Interactive Weather Map
Tropical Storm Tracking
New forecast layout! Learn more

10-Day Weather Forecast

Advertisements
Track Severe Weather on mobile